sensor_id;sensor_type;location;lat;lon;timestamp;P1;durP1;ratioP1;P2;durP2;ratioP2
16401;SDS011;8310;44.626;11.176;2022-10-10T00:01:11;9.45;;;6.93;;
16401;SDS011;8310;44.626;11.176;2022-10-10T00:03:40;8.27;;;7.30;;
16401;SDS011;8310;44.626;11.176;2022-10-10T00:06:10;8.45;;;7.57;;
16401;SDS011;8310;44.626;11.176;2022-10-10T00:08:38;7.57;;;6.80;;
16401;SDS011;8310;44.626;11.176;2022-10-10T00:11:06;8.20;;;7.25;;
16401;SDS011;8310;44.626;11.176;2022-10-10T00:13:34;7.97;;;7.20;;
16401;SDS011;8310;44.626;11.176;2022-10-10T00:16:02;7.88;;;7.10;;
16401;SDS011;8310;44.626;11.176;2022-10-10T00:18:31;8.25;;;7.45;;
16401;SDS011;8310;44.626;11.176;2022-10-10T00:20:59;8.07;;;6.72;;
16401;SDS011;8310;44.626;11.176;2022-10-10T00:23:29;7.60;;;6.90;;
16401;SDS011;8310;44.626;11.176;2022-10-10T00:25:57;7.35;;;6.75;;
16401;SDS011;8310;44.626;11.176;2022-10-10T00:28:24;8.57;;;7.32;;
16401;SDS011;8310;44.626;11.176;2022-10-10T00:30:53;10.27;;;6.70;;
16401;SDS011;8310;44.626;11.176;2022-10-10T00:33:21;8.40;;;6.82;;
16401;SDS011;8310;44.626;11.176;2022-10-10T00:35:49;7.03;;;6.32;;
16401;SDS011;8310;44.626;11.176;2022-10-10T00:38:17;8.55;;;7.07;;
16401;SDS011;8310;44.626;11.176;2022-10-10T00:40:47;7.20;;;6.50;;
16401;SDS011;8310;44.626;11.176;2022-10-10T00:43:16;7.43;;;6.68;;
16401;SDS011;8310;44.626;11.176;2022-10-10T00:45:44;8.05;;;6.30;;
16401;SDS011;8310;44.626;11.176;2022-10-10T00:48:14;8.68;;;6.88;;
16401;SDS011;8310;44.626;11.176;2022-10-10T00:50:45;8.70;;;6.80;;
16401;SDS011;8310;44.626;11.176;2022-10-10T00:53:16;9.48;;;6.45;;
16401;SDS011;8310;44.626;11.176;2022-10-10T00:55:47;6.97;;;6.28;;
16401;SDS011;8310;44.626;11.176;2022-10-10T00:58:16;7.70;;;6.90;;
16401;SDS011;8310;44.626;11.176;2022-10-10T01:00:44;6.80;;;6.18;;
16401;SDS011;8310;44.626;11.176;2022-10-10T01:03:13;7.38;;;6.68;;
16401;SDS011;8310;44.626;11.176;2022-10-10T01:05:40;6.90;;;6.30;;
16401;SDS011;8310;44.626;11.176;2022-10-10T01:08:09;7.22;;;6.60;;
16401;SDS011;8310;44.626;11.176;2022-10-10T01:10:40;7.40;;;6.47;;
16401;SDS011;8310;44.626;11.176;2022-10-10T01:13:19;6.75;;;6.25;;
16401;SDS011;8310;44.626;11.176;2022-10-10T01:15:54;7.13;;;6.07;;
16401;SDS011;8310;44.626;11.176;2022-10-10T01:18:28;8.18;;;6.47;;
16401;SDS011;8310;44.626;11.176;2022-10-10T01:21:04;7.25;;;6.55;;
16401;SDS011;8310;44.626;11.176;2022-10-10T01:27:00;7.45;;;6.35;;
16401;SDS011;8310;44.626;11.176;2022-10-10T01:29:46;6.72;;;6.07;;
16401;SDS011;8310;44.626;11.176;2022-10-10T01:32:19;7.40;;;6.30;;
16401;SDS011;8310;44.626;11.176;2022-10-10T01:34:55;7.30;;;5.88;;
16401;SDS011;8310;44.626;11.176;2022-10-10T01:37:33;6.25;;;5.75;;
16401;SDS011;8310;44.626;11.176;2022-10-10T01:40:08;6.43;;;5.82;;
16401;SDS011;8310;44.626;11.176;2022-10-10T01:42:46;7.82;;;6.57;;
16401;SDS011;8310;44.626;11.176;2022-10-10T01:45:18;7.13;;;6.03;;
16401;SDS011;8310;44.626;11.176;2022-10-10T01:47:46;6.65;;;6.03;;
16401;SDS011;8310;44.626;11.176;2022-10-10T01:50:15;7.25;;;6.22;;
16401;SDS011;8310;44.626;11.176;2022-10-10T01:52:47;7.55;;;6.85;;
16401;SDS011;8310;44.626;11.176;2022-10-10T01:55:30;6.00;;;5.40;;
16401;SDS011;8310;44.626;11.176;2022-10-10T01:58:16;8.85;;;6.50;;
16401;SDS011;8310;44.626;11.176;2022-10-10T02:00:53;8.15;;;6.20;;
16401;SDS011;8310;44.626;11.176;2022-10-10T02:03:26;7.00;;;6.40;;
16401;SDS011;8310;44.626;11.176;2022-10-10T02:05:58;7.15;;;6.28;;
16401;SDS011;8310;44.626;11.176;2022-10-10T02:08:30;6.82;;;6.13;;
16401;SDS011;8310;44.626;11.176;2022-10-10T02:11:02;7.88;;;7.07;;
16401;SDS011;8310;44.626;11.176;2022-10-10T02:13:32;7.28;;;6.40;;
16401;SDS011;8310;44.626;11.176;2022-10-10T02:16:12;6.95;;;6.15;;
16401;SDS011;8310;44.626;11.176;2022-10-10T02:18:42;6.40;;;5.80;;
16401;SDS011;8310;44.626;11.176;2022-10-10T02:21:11;7.25;;;6.47;;
16401;SDS011;8310;44.626;11.176;2022-10-10T02:23:41;7.03;;;6.38;;
16401;SDS011;8310;44.626;11.176;2022-10-10T02:26:11;6.88;;;6.18;;
16401;SDS011;8310;44.626;11.176;2022-10-10T02:28:47;6.85;;;6.15;;
16401;SDS011;8310;44.626;11.176;2022-10-10T02:31:24;7.25;;;5.80;;
16401;SDS011;8310;44.626;11.176;2022-10-10T02:33:58;6.70;;;6.07;;
16401;SDS011;8310;44.626;11.176;2022-10-10T02:36:35;6.68;;;6.03;;
16401;SDS011;8310;44.626;11.176;2022-10-10T02:39:03;6.88;;;6.15;;
16401;SDS011;8310;44.626;11.176;2022-10-10T02:41:33;6.35;;;5.80;;
16401;SDS011;8310;44.626;11.176;2022-10-10T02:44:02;6.60;;;5.85;;
16401;SDS011;8310;44.626;11.176;2022-10-10T02:46:32;7.15;;;5.82;;
16401;SDS011;8310;44.626;11.176;2022-10-10T02:49:00;7.90;;;6.00;;
16401;SDS011;8310;44.626;11.176;2022-10-10T02:51:32;6.18;;;5.53;;
16401;SDS011;8310;44.626;11.176;2022-10-10T02:53:59;7.15;;;5.20;;
16401;SDS011;8310;44.626;11.176;2022-10-10T02:56:32;6.55;;;5.90;;
16401;SDS011;8310;44.626;11.176;2022-10-10T02:59:00;6.18;;;5.60;;
16401;SDS011;8310;44.626;11.176;2022-10-10T03:01:28;6.47;;;5.80;;
16401;SDS011;8310;44.626;11.176;2022-10-10T03:03:58;6.50;;;5.93;;
16401;SDS011;8310;44.626;11.176;2022-10-10T03:06:26;6.25;;;5.63;;
16401;SDS011;8310;44.626;11.176;2022-10-10T03:08:54;5.72;;;5.20;;
16401;SDS011;8310;44.626;11.176;2022-10-10T03:11:22;7.32;;;5.60;;
16401;SDS011;8310;44.626;11.176;2022-10-10T03:13:50;6.35;;;5.18;;
16401;SDS011;8310;44.626;11.176;2022-10-10T03:16:18;5.53;;;5.13;;
16401;SDS011;8310;44.626;11.176;2022-10-10T03:18:45;5.97;;;5.40;;
16401;SDS011;8310;44.626;11.176;2022-10-10T03:21:15;8.15;;;5.93;;
16401;SDS011;8310;44.626;11.176;2022-10-10T03:23:42;6.05;;;5.45;;
16401;SDS011;8310;44.626;11.176;2022-10-10T03:26:10;6.32;;;5.70;;
16401;SDS011;8310;44.626;11.176;2022-10-10T03:28:38;5.43;;;4.93;;
16401;SDS011;8310;44.626;11.176;2022-10-10T03:31:06;5.70;;;5.15;;
16401;SDS011;8310;44.626;11.176;2022-10-10T03:33:34;6.07;;;5.47;;
16401;SDS011;8310;44.626;11.176;2022-10-10T03:36:04;5.82;;;5.38;;
16401;SDS011;8310;44.626;11.176;2022-10-10T03:38:34;6.72;;;5.65;;
16401;SDS011;8310;44.626;11.176;2022-10-10T03:41:02;6.80;;;5.47;;
16401;SDS011;8310;44.626;11.176;2022-10-10T03:43:31;6.47;;;5.97;;
16401;SDS011;8310;44.626;11.176;2022-10-10T03:45:59;6.00;;;5.50;;
16401;SDS011;8310;44.626;11.176;2022-10-10T03:48:31;6.28;;;5.70;;
16401;SDS011;8310;44.626;11.176;2022-10-10T03:50:59;6.43;;;5.13;;
16401;SDS011;8310;44.626;11.176;2022-10-10T03:53:27;6.78;;;6.05;;
16401;SDS011;8310;44.626;11.176;2022-10-10T03:55:57;7.10;;;5.70;;
16401;SDS011;8310;44.626;11.176;2022-10-10T03:58:25;6.70;;;5.57;;
16401;SDS011;8310;44.626;11.176;2022-10-10T04:00:53;5.78;;;5.28;;
16401;SDS011;8310;44.626;11.176;2022-10-10T04:03:21;7.40;;;5.78;;
16401;SDS011;8310;44.626;11.176;2022-10-10T04:05:50;6.10;;;5.55;;
16401;SDS011;8310;44.626;11.176;2022-10-10T04:08:18;7.78;;;5.93;;
16401;SDS011;8310;44.626;11.176;2022-10-10T04:10:51;6.25;;;5.60;;
16401;SDS011;8310;44.626;11.176;2022-10-10T04:13:21;7.07;;;5.90;;
16401;SDS011;8310;44.626;11.176;2022-10-10T04:15:51;8.73;;;6.25;;
16401;SDS011;8310;44.626;11.176;2022-10-10T04:18:20;6.32;;;5.30;;
16401;SDS011;8310;44.626;11.176;2022-10-10T04:20:48;6.50;;;5.78;;
16401;SDS011;8310;44.626;11.176;2022-10-10T04:23:17;7.63;;;5.70;;
16401;SDS011;8310;44.626;11.176;2022-10-10T04:25:45;7.53;;;5.85;;
16401;SDS011;8310;44.626;11.176;2022-10-10T04:28:15;9.63;;;6.40;;
16401;SDS011;8310;44.626;11.176;2022-10-10T04:30:45;7.15;;;6.45;;
16401;SDS011;8310;44.626;11.176;2022-10-10T04:33:13;7.03;;;6.38;;
16401;SDS011;8310;44.626;11.176;2022-10-10T04:35:41;6.63;;;6.03;;
16401;SDS011;8310;44.626;11.176;2022-10-10T04:38:09;8.13;;;5.82;;
16401;SDS011;8310;44.626;11.176;2022-10-10T04:40:37;7.07;;;5.65;;
16401;SDS011;8310;44.626;11.176;2022-10-10T04:43:07;7.50;;;6.03;;
16401;SDS011;8310;44.626;11.176;2022-10-10T04:45:37;7.88;;;6.35;;
16401;SDS011;8310;44.626;11.176;2022-10-10T04:48:07;7.68;;;6.95;;
16401;SDS011;8310;44.626;11.176;2022-10-10T04:50:35;6.75;;;6.07;;
16401;SDS011;8310;44.626;11.176;2022-10-10T04:53:03;6.82;;;5.75;;
16401;SDS011;8310;44.626;11.176;2022-10-10T04:55:31;7.07;;;5.60;;
16401;SDS011;8310;44.626;11.176;2022-10-10T04:57:59;10.23;;;6.18;;
16401;SDS011;8310;44.626;11.176;2022-10-10T05:00:26;8.40;;;6.38;;
16401;SDS011;8310;44.626;11.176;2022-10-10T05:02:56;8.40;;;6.03;;
16401;SDS011;8310;44.626;11.176;2022-10-10T05:05:25;7.05;;;6.47;;
16401;SDS011;8310;44.626;11.176;2022-10-10T05:07:54;6.03;;;5.47;;
16401;SDS011;8310;44.626;11.176;2022-10-10T05:10:22;5.68;;;5.15;;
16401;SDS011;8310;44.626;11.176;2022-10-10T05:12:51;6.43;;;5.50;;
16401;SDS011;8310;44.626;11.176;2022-10-10T05:15:18;7.57;;;5.72;;
16401;SDS011;8310;44.626;11.176;2022-10-10T05:17:46;22.10;;;7.03;;
16401;SDS011;8310;44.626;11.176;2022-10-10T05:20:14;13.63;;;6.30;;
16401;SDS011;8310;44.626;11.176;2022-10-10T05:22:44;10.90;;;6.45;;
16401;SDS011;8310;44.626;11.176;2022-10-10T05:25:12;10.68;;;7.38;;
16401;SDS011;8310;44.626;11.176;2022-10-10T05:27:40;9.07;;;7.05;;
16401;SDS011;8310;44.626;11.176;2022-10-10T05:30:07;9.40;;;7.60;;
16401;SDS011;8310;44.626;11.176;2022-10-10T05:32:36;9.65;;;7.70;;
16401;SDS011;8310;44.626;11.176;2022-10-10T05:35:04;10.27;;;7.47;;
16401;SDS011;8310;44.626;11.176;2022-10-10T05:37:32;10.05;;;8.52;;
16401;SDS011;8310;44.626;11.176;2022-10-10T05:40:02;9.60;;;7.80;;
16401;SDS011;8310;44.626;11.176;2022-10-10T05:42:31;10.90;;;7.95;;
16401;SDS011;8310;44.626;11.176;2022-10-10T05:44:59;10.55;;;8.07;;
16401;SDS011;8310;44.626;11.176;2022-10-10T05:47:27;9.00;;;7.25;;
16401;SDS011;8310;44.626;11.176;2022-10-10T05:49:54;8.98;;;7.47;;
16401;SDS011;8310;44.626;11.176;2022-10-10T05:52:22;10.63;;;7.78;;
16401;SDS011;8310;44.626;11.176;2022-10-10T05:54:51;10.98;;;7.63;;
16401;SDS011;8310;44.626;11.176;2022-10-10T05:57:21;10.65;;;7.70;;
16401;SDS011;8310;44.626;11.176;2022-10-10T05:59:49;8.63;;;7.80;;
16401;SDS011;8310;44.626;11.176;2022-10-10T06:02:17;9.57;;;7.57;;
16401;SDS011;8310;44.626;11.176;2022-10-10T06:04:45;11.85;;;7.45;;
16401;SDS011;8310;44.626;11.176;2022-10-10T06:07:12;19.95;;;8.25;;
16401;SDS011;8310;44.626;11.176;2022-10-10T06:09:41;11.95;;;7.15;;
16401;SDS011;8310;44.626;11.176;2022-10-10T06:12:09;13.85;;;7.75;;
16401;SDS011;8310;44.626;11.176;2022-10-10T06:14:43;11.05;;;7.50;;
16401;SDS011;8310;44.626;11.176;2022-10-10T06:17:10;8.68;;;7.00;;
16401;SDS011;8310;44.626;11.176;2022-10-10T06:19:37;8.55;;;7.20;;
16401;SDS011;8310;44.626;11.176;2022-10-10T06:22:05;11.13;;;7.47;;
16401;SDS011;8310;44.626;11.176;2022-10-10T06:24:34;10.18;;;7.30;;
16401;SDS011;8310;44.626;11.176;2022-10-10T06:27:01;9.35;;;7.40;;
16401;SDS011;8310;44.626;11.176;2022-10-10T06:29:29;8.93;;;7.32;;
16401;SDS011;8310;44.626;11.176;2022-10-10T06:31:58;8.88;;;6.93;;
16401;SDS011;8310;44.626;11.176;2022-10-10T06:34:27;12.73;;;7.22;;
16401;SDS011;8310;44.626;11.176;2022-10-10T06:36:55;9.02;;;6.40;;
16401;SDS011;8310;44.626;11.176;2022-10-10T06:39:22;8.50;;;6.38;;
16401;SDS011;8310;44.626;11.176;2022-10-10T06:41:50;9.98;;;6.88;;
16401;SDS011;8310;44.626;11.176;2022-10-10T06:44:18;6.20;;;5.57;;
16401;SDS011;8310;44.626;11.176;2022-10-10T06:46:45;6.70;;;5.47;;
16401;SDS011;8310;44.626;11.176;2022-10-10T06:49:15;6.05;;;5.47;;
16401;SDS011;8310;44.626;11.176;2022-10-10T06:51:42;7.55;;;5.25;;
16401;SDS011;8310;44.626;11.176;2022-10-10T06:54:11;7.88;;;5.45;;
16401;SDS011;8310;44.626;11.176;2022-10-10T06:56:39;5.70;;;5.18;;
16401;SDS011;8310;44.626;11.176;2022-10-10T06:59:06;5.93;;;5.20;;
16401;SDS011;8310;44.626;11.176;2022-10-10T07:01:35;7.65;;;5.03;;
16401;SDS011;8310;44.626;11.176;2022-10-10T07:04:07;5.63;;;4.93;;
16401;SDS011;8310;44.626;11.176;2022-10-10T07:06:37;5.50;;;5.00;;
16401;SDS011;8310;44.626;11.176;2022-10-10T07:09:05;6.10;;;5.53;;
16401;SDS011;8310;44.626;11.176;2022-10-10T07:11:33;7.60;;;5.85;;
16401;SDS011;8310;44.626;11.176;2022-10-10T07:14:01;5.90;;;5.38;;
16401;SDS011;8310;44.626;11.176;2022-10-10T07:16:29;6.60;;;5.13;;
16401;SDS011;8310;44.626;11.176;2022-10-10T07:18:58;5.32;;;4.88;;
16401;SDS011;8310;44.626;11.176;2022-10-10T07:21:25;5.63;;;5.13;;
16401;SDS011;8310;44.626;11.176;2022-10-10T07:23:55;5.38;;;4.65;;
16401;SDS011;8310;44.626;11.176;2022-10-10T07:26:27;6.57;;;5.13;;
16401;SDS011;8310;44.626;11.176;2022-10-10T07:28:55;5.40;;;4.85;;
16401;SDS011;8310;44.626;11.176;2022-10-10T07:31:23;7.78;;;5.70;;
16401;SDS011;8310;44.626;11.176;2022-10-10T07:33:51;6.63;;;5.07;;
16401;SDS011;8310;44.626;11.176;2022-10-10T07:36:19;5.55;;;4.88;;
16401;SDS011;8310;44.626;11.176;2022-10-10T07:38:48;6.72;;;5.03;;
16401;SDS011;8310;44.626;11.176;2022-10-10T07:41:18;6.05;;;4.68;;
16401;SDS011;8310;44.626;11.176;2022-10-10T07:43:47;5.68;;;4.68;;
16401;SDS011;8310;44.626;11.176;2022-10-10T07:46:19;5.80;;;5.22;;
16401;SDS011;8310;44.626;11.176;2022-10-10T07:48:47;5.75;;;4.95;;
16401;SDS011;8310;44.626;11.176;2022-10-10T07:51:15;6.43;;;4.82;;
16401;SDS011;8310;44.626;11.176;2022-10-10T07:53:46;7.05;;;4.60;;
16401;SDS011;8310;44.626;11.176;2022-10-10T07:56:15;4.93;;;4.50;;
16401;SDS011;8310;44.626;11.176;2022-10-10T07:58:44;6.00;;;4.60;;
16401;SDS011;8310;44.626;11.176;2022-10-10T08:01:13;5.20;;;4.68;;
16401;SDS011;8310;44.626;11.176;2022-10-10T08:03:41;6.32;;;5.43;;
16401;SDS011;8310;44.626;11.176;2022-10-10T08:06:10;6.53;;;5.72;;
16401;SDS011;8310;44.626;11.176;2022-10-10T08:08:39;6.05;;;4.78;;
16401;SDS011;8310;44.626;11.176;2022-10-10T08:11:08;5.30;;;4.47;;
16401;SDS011;8310;44.626;11.176;2022-10-10T08:13:38;5.50;;;5.00;;
16401;SDS011;8310;44.626;11.176;2022-10-10T08:16:06;5.40;;;4.82;;
16401;SDS011;8310;44.626;11.176;2022-10-10T08:18:34;7.93;;;4.80;;
16401;SDS011;8310;44.626;11.176;2022-10-10T08:21:02;7.13;;;6.07;;
16401;SDS011;8310;44.626;11.176;2022-10-10T08:23:32;8.45;;;4.85;;
16401;SDS011;8310;44.626;11.176;2022-10-10T08:26:01;6.18;;;5.40;;
16401;SDS011;8310;44.626;11.176;2022-10-10T08:28:31;5.45;;;4.75;;
16401;SDS011;8310;44.626;11.176;2022-10-10T08:31:04;5.78;;;5.28;;
16401;SDS011;8310;44.626;11.176;2022-10-10T08:33:33;7.45;;;6.28;;
16401;SDS011;8310;44.626;11.176;2022-10-10T08:36:03;6.68;;;5.88;;
16401;SDS011;8310;44.626;11.176;2022-10-10T08:38:32;7.18;;;5.50;;
16401;SDS011;8310;44.626;11.176;2022-10-10T08:41:00;6.38;;;4.93;;
16401;SDS011;8310;44.626;11.176;2022-10-10T08:43:36;7.90;;;5.70;;
16401;SDS011;8310;44.626;11.176;2022-10-10T08:46:13;6.32;;;5.30;;
16401;SDS011;8310;44.626;11.176;2022-10-10T08:48:44;6.78;;;5.43;;
16401;SDS011;8310;44.626;11.176;2022-10-10T08:51:16;6.18;;;5.22;;
16401;SDS011;8310;44.626;11.176;2022-10-10T08:53:51;6.28;;;5.63;;
16401;SDS011;8310;44.626;11.176;2022-10-10T08:56:24;8.43;;;5.50;;
16401;SDS011;8310;44.626;11.176;2022-10-10T08:58:54;5.38;;;4.93;;
16401;SDS011;8310;44.626;11.176;2022-10-10T09:01:29;5.65;;;5.15;;
16401;SDS011;8310;44.626;11.176;2022-10-10T09:04:00;5.93;;;5.32;;
16401;SDS011;8310;44.626;11.176;2022-10-10T09:06:37;5.90;;;5.25;;
16401;SDS011;8310;44.626;11.176;2022-10-10T09:09:12;5.88;;;5.28;;
16401;SDS011;8310;44.626;11.176;2022-10-10T09:11:48;7.82;;;5.75;;
16401;SDS011;8310;44.626;11.176;2022-10-10T09:14:31;8.13;;;5.70;;
16401;SDS011;8310;44.626;11.176;2022-10-10T09:17:07;6.10;;;5.40;;
16401;SDS011;8310;44.626;11.176;2022-10-10T09:19:48;6.82;;;6.15;;
16401;SDS011;8310;44.626;11.176;2022-10-10T09:22:25;6.25;;;5.18;;
16401;SDS011;8310;44.626;11.176;2022-10-10T09:24:57;9.15;;;5.35;;
16401;SDS011;8310;44.626;11.176;2022-10-10T09:27:32;6.97;;;5.70;;
16401;SDS011;8310;44.626;11.176;2022-10-10T09:30:04;6.82;;;5.88;;
16401;SDS011;8310;44.626;11.176;2022-10-10T09:32:42;6.13;;;5.53;;
16401;SDS011;8310;44.626;11.176;2022-10-10T09:35:18;6.40;;;5.78;;
16401;SDS011;8310;44.626;11.176;2022-10-10T09:37:49;6.22;;;5.70;;
16401;SDS011;8310;44.626;11.176;2022-10-10T09:40:21;8.65;;;5.70;;
16401;SDS011;8310;44.626;11.176;2022-10-10T09:42:53;5.68;;;5.10;;
16401;SDS011;8310;44.626;11.176;2022-10-10T09:45:23;8.18;;;7.20;;
16401;SDS011;8310;44.626;11.176;2022-10-10T09:47:58;9.30;;;6.18;;
16401;SDS011;8310;44.626;11.176;2022-10-10T09:50:26;7.60;;;5.80;;
16401;SDS011;8310;44.626;11.176;2022-10-10T09:52:54;6.00;;;5.00;;
16401;SDS011;8310;44.626;11.176;2022-10-10T09:55:24;6.00;;;4.85;;
16401;SDS011;8310;44.626;11.176;2022-10-10T09:57:56;6.05;;;5.18;;
16401;SDS011;8310;44.626;11.176;2022-10-10T10:00:35;11.73;;;8.23;;
16401;SDS011;8310;44.626;11.176;2022-10-10T10:03:12;8.75;;;7.85;;
16401;SDS011;8310;44.626;11.176;2022-10-10T10:05:42;7.60;;;6.40;;
16401;SDS011;8310;44.626;11.176;2022-10-10T10:08:18;7.45;;;5.25;;
16401;SDS011;8310;44.626;11.176;2022-10-10T10:10:50;6.93;;;6.10;;
16401;SDS011;8310;44.626;11.176;2022-10-10T10:13:23;7.65;;;5.43;;
16401;SDS011;8310;44.626;11.176;2022-10-10T10:15:55;9.65;;;5.55;;
16401;SDS011;8310;44.626;11.176;2022-10-10T10:18:28;5.40;;;4.90;;
16401;SDS011;8310;44.626;11.176;2022-10-10T10:21:18;7.00;;;4.95;;
16401;SDS011;8310;44.626;11.176;2022-10-10T10:23:51;5.72;;;5.10;;
16401;SDS011;8310;44.626;11.176;2022-10-10T10:26:22;10.82;;;5.75;;
16401;SDS011;8310;44.626;11.176;2022-10-10T10:28:52;5.20;;;4.60;;
16401;SDS011;8310;44.626;11.176;2022-10-10T10:31:25;6.22;;;5.50;;
16401;SDS011;8310;44.626;11.176;2022-10-10T10:34:21;5.55;;;4.90;;
16401;SDS011;8310;44.626;11.176;2022-10-10T10:37:09;9.40;;;6.38;;
16401;SDS011;8310;44.626;11.176;2022-10-10T10:39:45;6.03;;;5.30;;
16401;SDS011;8310;44.626;11.176;2022-10-10T10:42:33;6.68;;;6.05;;
16401;SDS011;8310;44.626;11.176;2022-10-10T10:45:14;6.78;;;5.57;;
16401;SDS011;8310;44.626;11.176;2022-10-10T10:47:48;6.03;;;5.53;;
16401;SDS011;8310;44.626;11.176;2022-10-10T10:50:33;7.10;;;5.60;;
16401;SDS011;8310;44.626;11.176;2022-10-10T10:53:10;7.78;;;7.15;;
16401;SDS011;8310;44.626;11.176;2022-10-10T10:55:44;7.20;;;6.32;;
16401;SDS011;8310;44.626;11.176;2022-10-10T10:58:21;7.22;;;6.60;;
16401;SDS011;8310;44.626;11.176;2022-10-10T11:01:01;9.43;;;6.25;;
16401;SDS011;8310;44.626;11.176;2022-10-10T11:03:35;6.97;;;6.28;;
16401;SDS011;8310;44.626;11.176;2022-10-10T11:06:19;6.78;;;6.13;;
16401;SDS011;8310;44.626;11.176;2022-10-10T11:09:00;7.35;;;5.30;;
16401;SDS011;8310;44.626;11.176;2022-10-10T11:11:49;6.18;;;5.60;;
16401;SDS011;8310;44.626;11.176;2022-10-10T11:14:30;9.38;;;6.40;;
16401;SDS011;8310;44.626;11.176;2022-10-10T11:17:09;6.90;;;5.72;;
16401;SDS011;8310;44.626;11.176;2022-10-10T11:19:42;8.05;;;5.70;;
16401;SDS011;8310;44.626;11.176;2022-10-10T11:22:15;7.20;;;5.80;;
16401;SDS011;8310;44.626;11.176;2022-10-10T11:24:45;7.65;;;6.65;;
16401;SDS011;8310;44.626;11.176;2022-10-10T11:27:19;7.05;;;6.10;;
16401;SDS011;8310;44.626;11.176;2022-10-10T11:29:55;15.20;;;7.90;;
16401;SDS011;8310;44.626;11.176;2022-10-10T11:32:33;6.47;;;5.93;;
16401;SDS011;8310;44.626;11.176;2022-10-10T11:35:17;7.45;;;6.35;;
16401;SDS011;8310;44.626;11.176;2022-10-10T11:37:53;6.65;;;6.05;;
16401;SDS011;8310;44.626;11.176;2022-10-10T11:40:29;6.95;;;6.32;;
16401;SDS011;8310;44.626;11.176;2022-10-10T11:43:01;7.95;;;7.15;;
16401;SDS011;8310;44.626;11.176;2022-10-10T11:45:33;7.00;;;6.30;;
16401;SDS011;8310;44.626;11.176;2022-10-10T11:48:16;7.05;;;6.07;;
16401;SDS011;8310;44.626;11.176;2022-10-10T11:50:52;6.53;;;5.30;;
16401;SDS011;8310;44.626;11.176;2022-10-10T11:53:29;7.13;;;5.80;;
16401;SDS011;8310;44.626;11.176;2022-10-10T11:56:06;8.13;;;5.78;;
16401;SDS011;8310;44.626;11.176;2022-10-10T11:58:42;8.50;;;6.55;;
16401;SDS011;8310;44.626;11.176;2022-10-10T12:01:17;9.75;;;6.88;;
16401;SDS011;8310;44.626;11.176;2022-10-10T12:03:50;6.78;;;6.18;;
16401;SDS011;8310;44.626;11.176;2022-10-10T12:06:23;9.23;;;7.82;;
16401;SDS011;8310;44.626;11.176;2022-10-10T12:08:59;7.10;;;6.50;;
16401;SDS011;8310;44.626;11.176;2022-10-10T12:11:31;6.68;;;5.95;;
16401;SDS011;8310;44.626;11.176;2022-10-10T12:14:02;5.65;;;5.15;;
16401;SDS011;8310;44.626;11.176;2022-10-10T12:16:35;7.57;;;5.93;;
16401;SDS011;8310;44.626;11.176;2022-10-10T12:19:04;7.45;;;6.72;;
16401;SDS011;8310;44.626;11.176;2022-10-10T12:21:50;6.50;;;5.85;;
16401;SDS011;8310;44.626;11.176;2022-10-10T12:24:24;7.20;;;6.25;;
16401;SDS011;8310;44.626;11.176;2022-10-10T12:30:13;7.50;;;5.63;;
16401;SDS011;8310;44.626;11.176;2022-10-10T12:32:50;6.13;;;5.53;;
16401;SDS011;8310;44.626;11.176;2022-10-10T12:35:38;6.97;;;5.80;;
16401;SDS011;8310;44.626;11.176;2022-10-10T12:38:17;6.50;;;5.82;;
16401;SDS011;8310;44.626;11.176;2022-10-10T12:41:06;7.00;;;6.32;;
16401;SDS011;8310;44.626;11.176;2022-10-10T12:43:40;6.60;;;6.03;;
16401;SDS011;8310;44.626;11.176;2022-10-10T12:46:17;7.18;;;5.80;;
16401;SDS011;8310;44.626;11.176;2022-10-10T12:48:56;6.80;;;6.13;;
16401;SDS011;8310;44.626;11.176;2022-10-10T12:51:26;7.72;;;6.88;;
16401;SDS011;8310;44.626;11.176;2022-10-10T12:53:56;6.50;;;5.90;;
16401;SDS011;8310;44.626;11.176;2022-10-10T12:56:37;6.57;;;5.82;;
16401;SDS011;8310;44.626;11.176;2022-10-10T12:59:15;7.03;;;6.32;;
16401;SDS011;8310;44.626;11.176;2022-10-10T13:01:46;6.72;;;6.03;;
16401;SDS011;8310;44.626;11.176;2022-10-10T13:04:18;8.40;;;6.30;;
16401;SDS011;8310;44.626;11.176;2022-10-10T13:06:47;7.50;;;6.45;;
16401;SDS011;8310;44.626;11.176;2022-10-10T13:09:18;8.40;;;5.95;;
16401;SDS011;8310;44.626;11.176;2022-10-10T13:11:51;6.80;;;5.90;;
16401;SDS011;8310;44.626;11.176;2022-10-10T13:14:20;7.10;;;5.90;;
16401;SDS011;8310;44.626;11.176;2022-10-10T13:16:48;6.45;;;5.68;;
16401;SDS011;8310;44.626;11.176;2022-10-10T13:19:18;11.43;;;6.18;;
16401;SDS011;8310;44.626;11.176;2022-10-10T13:21:47;7.75;;;6.82;;
16401;SDS011;8310;44.626;11.176;2022-10-10T13:24:17;7.15;;;6.35;;
16401;SDS011;8310;44.626;11.176;2022-10-10T13:26:57;8.23;;;7.43;;
16401;SDS011;8310;44.626;11.176;2022-10-10T13:29:26;7.70;;;6.60;;
16401;SDS011;8310;44.626;11.176;2022-10-10T13:31:58;7.15;;;6.45;;
16401;SDS011;8310;44.626;11.176;2022-10-10T13:34:29;9.77;;;7.05;;
16401;SDS011;8310;44.626;11.176;2022-10-10T13:37:00;8.98;;;6.70;;
16401;SDS011;8310;44.626;11.176;2022-10-10T13:39:29;7.90;;;7.10;;
16401;SDS011;8310;44.626;11.176;2022-10-10T13:42:01;7.55;;;6.63;;
16401;SDS011;8310;44.626;11.176;2022-10-10T13:44:32;9.70;;;7.35;;
16401;SDS011;8310;44.626;11.176;2022-10-10T13:50:22;8.85;;;6.35;;
16401;SDS011;8310;44.626;11.176;2022-10-10T13:55:49;6.82;;;6.13;;
16401;SDS011;8310;44.626;11.176;2022-10-10T13:58:19;9.13;;;6.88;;
16401;SDS011;8310;44.626;11.176;2022-10-10T14:00:52;7.10;;;6.40;;
16401;SDS011;8310;44.626;11.176;2022-10-10T14:03:22;8.43;;;6.63;;
16401;SDS011;8310;44.626;11.176;2022-10-10T14:05:51;8.45;;;6.38;;
16401;SDS011;8310;44.626;11.176;2022-10-10T14:08:20;9.32;;;6.60;;
16401;SDS011;8310;44.626;11.176;2022-10-10T14:10:56;6.72;;;6.13;;
16401;SDS011;8310;44.626;11.176;2022-10-10T14:13:29;8.23;;;6.07;;
16401;SDS011;8310;44.626;11.176;2022-10-10T14:16:08;7.38;;;6.55;;
16401;SDS011;8310;44.626;11.176;2022-10-10T14:18:37;9.13;;;6.25;;
16401;SDS011;8310;44.626;11.176;2022-10-10T14:21:08;8.30;;;6.28;;
16401;SDS011;8310;44.626;11.176;2022-10-10T14:23:36;8.55;;;5.85;;
16401;SDS011;8310;44.626;11.176;2022-10-10T14:26:04;6.70;;;6.03;;
16401;SDS011;8310;44.626;11.176;2022-10-10T14:28:36;6.20;;;5.70;;
16401;SDS011;8310;44.626;11.176;2022-10-10T14:31:06;7.57;;;5.88;;
16401;SDS011;8310;44.626;11.176;2022-10-10T14:33:34;7.07;;;6.38;;
16401;SDS011;8310;44.626;11.176;2022-10-10T14:36:03;8.88;;;6.85;;
16401;SDS011;8310;44.626;11.176;2022-10-10T14:38:31;7.13;;;6.43;;
16401;SDS011;8310;44.626;11.176;2022-10-10T14:40:59;6.80;;;6.15;;
16401;SDS011;8310;44.626;11.176;2022-10-10T14:43:27;6.40;;;5.80;;
16401;SDS011;8310;44.626;11.176;2022-10-10T14:45:57;10.85;;;6.78;;
16401;SDS011;8310;44.626;11.176;2022-10-10T14:48:26;9.52;;;7.35;;
16401;SDS011;8310;44.626;11.176;2022-10-10T14:50:54;6.47;;;5.72;;
16401;SDS011;8310;44.626;11.176;2022-10-10T14:53:22;14.35;;;6.68;;
16401;SDS011;8310;44.626;11.176;2022-10-10T14:55:50;6.55;;;5.78;;
16401;SDS011;8310;44.626;11.176;2022-10-10T14:58:22;6.65;;;5.95;;
16401;SDS011;8310;44.626;11.176;2022-10-10T15:00:50;7.85;;;6.07;;
16401;SDS011;8310;44.626;11.176;2022-10-10T15:03:20;6.28;;;5.68;;
16401;SDS011;8310;44.626;11.176;2022-10-10T15:05:47;6.88;;;5.43;;
16401;SDS011;8310;44.626;11.176;2022-10-10T15:08:16;10.23;;;6.05;;
16401;SDS011;8310;44.626;11.176;2022-10-10T15:10:49;6.68;;;5.82;;
16401;SDS011;8310;44.626;11.176;2022-10-10T15:13:17;7.50;;;6.80;;
16401;SDS011;8310;44.626;11.176;2022-10-10T15:15:45;7.20;;;6.50;;
16401;SDS011;8310;44.626;11.176;2022-10-10T15:18:13;7.47;;;6.43;;
16401;SDS011;8310;44.626;11.176;2022-10-10T15:20:43;7.53;;;6.18;;
16401;SDS011;8310;44.626;11.176;2022-10-10T15:23:11;8.93;;;5.78;;